sensor_id;sensor_type;location;lat;lon;timestamp;pressure;altitude;pressure_sealevel;temperature;humidity
63090;BME280;49174;43.198;27.824;2023-04-15T00:01:26;100997.78;;;11.19;92.26
63090;BME280;49174;43.198;27.824;2023-04-15T00:03:53;100989.66;;;11.19;91.94
63090;BME280;49174;43.198;27.824;2023-04-15T00:06:19;100985.44;;;11.10;92.03
63090;BME280;49174;43.198;27.824;2023-04-15T00:08:46;100997.69;;;11.06;92.20
63090;BME280;49174;43.198;27.824;2023-04-15T00:11:12;100992.06;;;10.86;93.17
63090;BME280;49174;43.198;27.824;2023-04-15T00:13:38;100992.78;;;10.95;94.28
63090;BME280;49174;43.198;27.824;2023-04-15T00:16:05;100995.03;;;10.91;93.93
63090;BME280;49174;43.198;27.824;2023-04-15T00:18:31;100995.63;;;10.87;93.97
63090;BME280;49174;43.198;27.824;2023-04-15T00:20:57;100990.00;;;10.88;93.97
63090;BME280;49174;43.198;27.824;2023-04-15T00:23:25;100986.44;;;10.81;95.03
63090;BME280;49174;43.198;27.824;2023-04-15T00:25:54;100989.97;;;10.82;95.70
63090;BME280;49174;43.198;27.824;2023-04-15T00:28:20;100999.44;;;10.78;95.39
63090;BME280;49174;43.198;27.824;2023-04-15T00:30:45;101003.19;;;10.77;95.71
63090;BME280;49174;43.198;27.824;2023-04-15T00:33:14;101006.44;;;10.72;96.75
63090;BME280;49174;43.198;27.824;2023-04-15T00:35:41;101010.19;;;10.71;96.74
63090;BME280;49174;43.198;27.824;2023-04-15T00:38:06;101004.84;;;10.78;97.21
63090;BME280;49174;43.198;27.824;2023-04-15T00:40:32;101008.59;;;10.77;96.81
63090;BME280;49174;43.198;27.824;2023-04-15T00:42:58;101010.91;;;10.80;98.34
63090;BME280;49174;43.198;27.824;2023-04-15T00:45:24;101004.94;;;10.84;97.75
63090;BME280;49174;43.198;27.824;2023-04-15T00:47:50;101009.94;;;10.87;97.81
63090;BME280;49174;43.198;27.824;2023-04-15T00:50:16;101014.13;;;10.90;98.49
63090;BME280;49174;43.198;27.824;2023-04-15T00:52:41;101011.69;;;10.95;97.19
63090;BME280;49174;43.198;27.824;2023-04-15T00:55:08;101012.53;;;10.95;98.47
63090;BME280;49174;43.198;27.824;2023-04-15T00:57:34;101019.84;;;11.02;97.55
63090;BME280;49174;43.198;27.824;2023-04-15T01:00:00;101020.88;;;11.01;97.81
63090;BME280;49174;43.198;27.824;2023-04-15T01:02:26;101020.69;;;11.02;96.77
63090;BME280;49174;43.198;27.824;2023-04-15T01:04:51;101021.06;;;10.99;98.38
63090;BME280;49174;43.198;27.824;2023-04-15T01:07:17;101015.22;;;10.95;97.83
63090;BME280;49174;43.198;27.824;2023-04-15T01:09:44;101018.63;;;11.04;96.69
63090;BME280;49174;43.198;27.824;2023-04-15T01:12:12;101015.97;;;11.11;96.53
63090;BME280;49174;43.198;27.824;2023-04-15T01:14:38;101015.16;;;11.10;97.11
63090;BME280;49174;43.198;27.824;2023-04-15T01:17:04;101015.41;;;11.15;96.74
63090;BME280;49174;43.198;27.824;2023-04-15T01:19:29;101014.38;;;11.16;96.71
63090;BME280;49174;43.198;27.824;2023-04-15T01:21:55;101015.78;;;11.12;98.18
63090;BME280;49174;43.198;27.824;2023-04-15T01:24:22;101011.47;;;11.18;97.27
63090;BME280;49174;43.198;27.824;2023-04-15T01:26:48;101008.56;;;11.19;97.55
63090;BME280;49174;43.198;27.824;2023-04-15T01:29:14;101015.66;;;11.21;98.44
63090;BME280;49174;43.198;27.824;2023-04-15T01:31:48;101004.84;;;11.21;97.45
63090;BME280;49174;43.198;27.824;2023-04-15T01:34:13;101002.41;;;11.26;97.10
63090;BME280;49174;43.198;27.824;2023-04-15T01:36:39;101001.19;;;11.28;97.22
63090;BME280;49174;43.198;27.824;2023-04-15T01:39:05;101005.34;;;11.31;96.94
63090;BME280;49174;43.198;27.824;2023-04-15T01:41:30;100999.19;;;11.37;96.82
63090;BME280;49174;43.198;27.824;2023-04-15T01:43:56;100997.78;;;11.48;95.10
63090;BME280;49174;43.198;27.824;2023-04-15T01:46:22;101013.38;;;11.46;95.93
63090;BME280;49174;43.198;27.824;2023-04-15T01:48:47;101011.28;;;11.48;96.51
63090;BME280;49174;43.198;27.824;2023-04-15T01:51:13;101011.28;;;11.48;95.62
63090;BME280;49174;43.198;27.824;2023-04-15T01:53:38;101011.94;;;11.50;96.47
63090;BME280;49174;43.198;27.824;2023-04-15T01:56:05;101003.78;;;11.43;96.71
63090;BME280;49174;43.198;27.824;2023-04-15T01:58:32;101002.97;;;11.43;95.95
63090;BME280;49174;43.198;27.824;2023-04-15T02:00:58;100995.47;;;11.45;95.66
63090;BME280;49174;43.198;27.824;2023-04-15T02:03:24;101000.06;;;11.44;96.47
63090;BME280;49174;43.198;27.824;2023-04-15T02:05:49;101005.41;;;11.37;97.14
63090;BME280;49174;43.198;27.824;2023-04-15T02:08:15;101010.28;;;11.49;98.82
63090;BME280;49174;43.198;27.824;2023-04-15T02:10:41;101008.22;;;11.51;97.26
63090;BME280;49174;43.198;27.824;2023-04-15T02:13:07;101007.44;;;11.57;98.01
63090;BME280;49174;43.198;27.824;2023-04-15T02:15:33;101014.34;;;11.66;98.38
63090;BME280;49174;43.198;27.824;2023-04-15T02:17:59;101013.13;;;11.69;98.83
63090;BME280;49174;43.198;27.824;2023-04-15T02:20:26;101018.53;;;11.69;98.84
63090;BME280;49174;43.198;27.824;2023-04-15T02:22:52;101019.78;;;11.73;97.43
63090;BME280;49174;43.198;27.824;2023-04-15T02:25:17;101018.38;;;11.77;97.14
63090;BME280;49174;43.198;27.824;2023-04-15T02:27:43;101025.19;;;11.73;96.19
63090;BME280;49174;43.198;27.824;2023-04-15T02:30:09;101014.38;;;11.73;96.03
63090;BME280;49174;43.198;27.824;2023-04-15T02:32:34;101026.06;;;11.73;95.36
63090;BME280;49174;43.198;27.824;2023-04-15T02:35:05;101001.09;;;11.78;94.99
63090;BME280;49174;43.198;27.824;2023-04-15T02:37:36;101008.59;;;11.76;93.33
63090;BME280;49174;43.198;27.824;2023-04-15T02:40:07;101006.09;;;11.74;94.57
63090;BME280;49174;43.198;27.824;2023-04-15T02:42:34;101016.47;;;11.71;92.89
63090;BME280;49174;43.198;27.824;2023-04-15T02:44:59;101006.66;;;11.70;93.57
63090;BME280;49174;43.198;27.824;2023-04-15T02:47:25;100996.91;;;11.69;95.20
63090;BME280;49174;43.198;27.824;2023-04-15T02:49:51;100993.91;;;11.57;95.62
63090;BME280;49174;43.198;27.824;2023-04-15T02:52:16;100998.97;;;11.67;96.24
63090;BME280;49174;43.198;27.824;2023-04-15T02:54:42;101006.47;;;11.71;96.64
63090;BME280;49174;43.198;27.824;2023-04-15T02:57:07;101000.88;;;11.73;95.38
63090;BME280;49174;43.198;27.824;2023-04-15T02:59:34;101009.88;;;11.80;95.97
63090;BME280;49174;43.198;27.824;2023-04-15T03:02:00;101006.50;;;11.78;96.13
63090;BME280;49174;43.198;27.824;2023-04-15T03:04:26;101015.66;;;11.77;96.30
63090;BME280;49174;43.198;27.824;2023-04-15T03:06:54;101010.66;;;11.74;96.90
63090;BME280;49174;43.198;27.824;2023-04-15T03:09:20;101005.59;;;11.64;98.03
63090;BME280;49174;43.198;27.824;2023-04-15T03:11:45;101015.97;;;11.60;98.09
63090;BME280;49174;43.198;27.824;2023-04-15T03:14:11;101008.75;;;11.68;99.15
63090;BME280;49174;43.198;27.824;2023-04-15T03:16:36;101011.66;;;11.66;98.78
63090;BME280;49174;43.198;27.824;2023-04-15T03:19:02;101007.91;;;11.67;98.41
63090;BME280;49174;43.198;27.824;2023-04-15T03:21:27;101009.34;;;11.63;99.76
63090;BME280;49174;43.198;27.824;2023-04-15T03:23:53;100999.25;;;11.50;99.16
63090;BME280;49174;43.198;27.824;2023-04-15T03:26:29;101002.72;;;11.37;99.69
63090;BME280;49174;43.198;27.824;2023-04-15T03:28:55;100998.38;;;11.43;100.00
63090;BME280;49174;43.198;27.824;2023-04-15T03:31:21;100999.72;;;11.54;99.63
63090;BME280;49174;43.198;27.824;2023-04-15T03:33:47;100999.50;;;11.55;98.43
63090;BME280;49174;43.198;27.824;2023-04-15T03:36:12;100991.13;;;11.44;99.75
63090;BME280;49174;43.198;27.824;2023-04-15T03:38:38;100996.69;;;11.42;99.27
63090;BME280;49174;43.198;27.824;2023-04-15T03:41:03;100998.78;;;11.40;99.59
63090;BME280;49174;43.198;27.824;2023-04-15T03:43:29;101007.38;;;11.50;99.67
63090;BME280;49174;43.198;27.824;2023-04-15T03:45:55;101005.88;;;11.48;99.18
63090;BME280;49174;43.198;27.824;2023-04-15T03:48:21;101016.06;;;11.46;100.00
63090;BME280;49174;43.198;27.824;2023-04-15T03:50:46;101005.41;;;11.66;100.00
63090;BME280;49174;43.198;27.824;2023-04-15T03:53:14;101012.69;;;11.65;100.00
63090;BME280;49174;43.198;27.824;2023-04-15T03:55:39;101011.47;;;11.68;100.00
63090;BME280;49174;43.198;27.824;2023-04-15T03:58:05;101010.84;;;11.72;100.00
63090;BME280;49174;43.198;27.824;2023-04-15T04:00:30;101014.00;;;11.76;99.67
63090;BME280;49174;43.198;27.824;2023-04-15T04:03:04;101011.16;;;11.84;97.39
63090;BME280;49174;43.198;27.824;2023-04-15T04:05:39;101015.28;;;11.80;98.48
63090;BME280;49174;43.198;27.824;2023-04-15T04:08:06;101010.25;;;11.77;98.01
63090;BME280;49174;43.198;27.824;2023-04-15T04:24:02;101021.47;;;12.02;95.71
63090;BME280;49174;43.198;27.824;2023-04-15T04:26:28;101024.59;;;12.05;95.95
63090;BME280;49174;43.198;27.824;2023-04-15T04:28:53;101025.66;;;12.04;95.88
63090;BME280;49174;43.198;27.824;2023-04-15T04:31:19;101028.78;;;12.08;96.24
63090;BME280;49174;43.198;27.824;2023-04-15T04:33:45;101034.25;;;12.15;95.81
63090;BME280;49174;43.198;27.824;2023-04-15T04:36:11;101028.03;;;12.21;96.57
63090;BME280;49174;43.198;27.824;2023-04-15T04:44:01;101034.09;;;12.29;96.03
63090;BME280;49174;43.198;27.824;2023-04-15T04:46:27;101028.88;;;12.28;96.54
63090;BME280;49174;43.198;27.824;2023-04-15T04:48:53;101028.09;;;12.34;96.04
63090;BME280;49174;43.198;27.824;2023-04-15T04:51:19;101026.00;;;12.36;95.74
63090;BME280;49174;43.198;27.824;2023-04-15T04:53:45;101026.44;;;12.40;95.62
63090;BME280;49174;43.198;27.824;2023-04-15T04:56:11;101027.00;;;12.28;96.29
63090;BME280;49174;43.198;27.824;2023-04-15T05:15:30;101017.41;;;12.74;94.84
63090;BME280;49174;43.198;27.824;2023-04-15T05:38:29;101067.25;;;13.00;92.52
63090;BME280;49174;43.198;27.824;2023-04-15T06:03:08;101133.59;;;12.69;95.83
63090;BME280;49174;43.198;27.824;2023-04-15T06:10:58;101134.22;;;12.29;99.62
63090;BME280;49174;43.198;27.824;2023-04-15T06:13:24;101144.78;;;12.24;100.00
63090;BME280;49174;43.198;27.824;2023-04-15T06:15:49;101131.28;;;12.31;100.00
63090;BME280;49174;43.198;27.824;2023-04-15T06:18:15;101129.31;;;12.46;100.00
63090;BME280;49174;43.198;27.824;2023-04-15T06:20:41;101125.59;;;12.54;100.00
63090;BME280;49174;43.198;27.824;2023-04-15T06:23:07;101137.03;;;12.56;100.00
63090;BME280;49174;43.198;27.824;2023-04-15T06:25:32;101146.41;;;12.53;100.00
63090;BME280;49174;43.198;27.824;2023-04-15T06:27:58;101148.34;;;12.60;100.00
63090;BME280;49174;43.198;27.824;2023-04-15T06:30:23;101141.28;;;12.72;100.00
63090;BME280;49174;43.198;27.824;2023-04-15T06:32:49;101136.72;;;12.72;100.00
63090;BME280;49174;43.198;27.824;2023-04-15T06:35:15;101139.22;;;12.74;100.00
63090;BME280;49174;43.198;27.824;2023-04-15T06:37:40;101141.94;;;12.74;100.00
63090;BME280;49174;43.198;27.824;2023-04-15T06:40:06;101136.13;;;12.77;100.00
63090;BME280;49174;43.198;27.824;2023-04-15T06:42:32;101134.47;;;12.76;100.00
63090;BME280;49174;43.198;27.824;2023-04-15T06:44:58;101133.84;;;12.81;100.00
63090;BME280;49174;43.198;27.824;2023-04-15T06:47:24;101134.31;;;12.91;100.00
63090;BME280;49174;43.198;27.824;2023-04-15T06:49:49;101140.38;;;13.00;100.00
63090;BME280;49174;43.198;27.824;2023-04-15T06:52:15;101142.09;;;13.14;100.00
63090;BME280;49174;43.198;27.824;2023-04-15T06:54:41;101147.56;;;13.27;100.00
63090;BME280;49174;43.198;27.824;2023-04-15T06:57:07;101148.22;;;13.43;100.00
63090;BME280;49174;43.198;27.824;2023-04-15T06:59:33;101134.91;;;13.54;100.00
63090;BME280;49174;43.198;27.824;2023-04-15T07:01:58;101134.06;;;13.67;100.00
63090;BME280;49174;43.198;27.824;2023-04-15T07:04:24;101135.53;;;13.83;100.00
63090;BME280;49174;43.198;27.824;2023-04-15T07:06:50;101152.22;;;14.00;100.00
63090;BME280;49174;43.198;27.824;2023-04-15T07:09:15;101157.66;;;14.13;100.00
63090;BME280;49174;43.198;27.824;2023-04-15T07:11:41;101169.31;;;14.20;100.00
63090;BME280;49174;43.198;27.824;2023-04-15T07:14:06;101183.50;;;14.29;98.48
63090;BME280;49174;43.198;27.824;2023-04-15T07:16:32;101171.59;;;14.37;99.06
63090;BME280;49174;43.198;27.824;2023-04-15T07:18:58;101162.59;;;14.43;97.45
63090;BME280;49174;43.198;27.824;2023-04-15T07:21:24;101172.25;;;14.32;94.97
63090;BME280;49174;43.198;27.824;2023-04-15T07:42:44;101164.66;;;14.74;92.96
63090;BME280;49174;43.198;27.824;2023-04-15T07:50:32;101163.47;;;14.43;95.98
63090;BME280;49174;43.198;27.824;2023-04-15T07:52:58;101160.97;;;14.35;95.54
63090;BME280;49174;43.198;27.824;2023-04-15T07:55:23;101153.88;;;14.27;96.19
63090;BME280;49174;43.198;27.824;2023-04-15T07:57:49;101157.81;;;14.45;98.09
63090;BME280;49174;43.198;27.824;2023-04-15T08:00:15;101166.75;;;14.72;98.04
63090;BME280;49174;43.198;27.824;2023-04-15T08:05:32;101164.69;;;15.12;94.45
63090;BME280;49174;43.198;27.824;2023-04-15T08:07:58;101159.44;;;15.24;95.81
63090;BME280;49174;43.198;27.824;2023-04-15T08:10:24;101164.56;;;15.39;96.24
63090;BME280;49174;43.198;27.824;2023-04-15T08:12:50;101160.53;;;15.48;93.24
63090;BME280;49174;43.198;27.824;2023-04-15T08:18:06;101175.03;;;15.74;86.70
63090;BME280;49174;43.198;27.824;2023-04-15T08:23:31;101158.78;;;15.92;90.57
63090;BME280;49174;43.198;27.824;2023-04-15T08:28:40;101154.72;;;16.01;87.24
63090;BME280;49174;43.198;27.824;2023-04-15T08:31:07;101147.53;;;16.07;84.02
63090;BME280;49174;43.198;27.824;2023-04-15T08:36:00;101152.94;;;16.14;87.97
63090;BME280;49174;43.198;27.824;2023-04-15T08:38:25;101166.72;;;16.19;86.37
63090;BME280;49174;43.198;27.824;2023-04-15T08:40:51;101180.31;;;16.19;84.78
63090;BME280;49174;43.198;27.824;2023-04-15T08:43:46;101170.47;;;16.18;81.01
63090;BME280;49174;43.198;27.824;2023-04-15T08:46:14;101167.47;;;16.26;84.09
63090;BME280;49174;43.198;27.824;2023-04-15T08:48:40;101175.28;;;16.41;82.35
63090;BME280;49174;43.198;27.824;2023-04-15T08:51:07;101178.84;;;16.41;81.01
63090;BME280;49174;43.198;27.824;2023-04-15T08:53:34;101174.78;;;16.50;81.58
63090;BME280;49174;43.198;27.824;2023-04-15T08:56:04;101175.53;;;16.58;78.01
63090;BME280;49174;43.198;27.824;2023-04-15T08:58:32;101187.94;;;16.53;78.65
63090;BME280;49174;43.198;27.824;2023-04-15T09:00:58;101182.66;;;16.59;77.46
63090;BME280;49174;43.198;27.824;2023-04-15T09:03:24;101178.94;;;16.53;76.58
63090;BME280;49174;43.198;27.824;2023-04-15T09:05:50;101173.50;;;16.53;77.40
63090;BME280;49174;43.198;27.824;2023-04-15T09:10:58;101172.88;;;16.51;76.79
63090;BME280;49174;43.198;27.824;2023-04-15T09:13:24;101180.91;;;16.64;78.30
63090;BME280;49174;43.198;27.824;2023-04-15T09:15:50;101184.25;;;16.66;76.77
63090;BME280;49174;43.198;27.824;2023-04-15T09:18:30;101177.88;;;16.72;78.81
63090;BME280;49174;43.198;27.824;2023-04-15T09:21:04;101183.69;;;16.83;80.54
63090;BME280;49174;43.198;27.824;2023-04-15T09:23:31;101188.06;;;17.02;77.68
63090;BME280;49174;43.198;27.824;2023-04-15T09:25:57;101179.94;;;17.14;75.97
63090;BME280;49174;43.198;27.824;2023-04-15T09:28:24;101180.81;;;17.26;76.54
63090;BME280;49174;43.198;27.824;2023-04-15T09:30:54;101184.75;;;17.30;75.90
63090;BME280;49174;43.198;27.824;2023-04-15T09:36:04;101190.28;;;17.54;73.84
63090;BME280;49174;43.198;27.824;2023-04-15T09:38:30;101182.41;;;17.76;73.41
63090;BME280;49174;43.198;27.824;2023-04-15T09:40:57;101185.09;;;18.06;70.82
63090;BME280;49174;43.198;27.824;2023-04-15T09:43:36;101191.75;;;18.22;70.49
63090;BME280;49174;43.198;27.824;2023-04-15T09:46:03;101192.22;;;18.19;69.92
63090;BME280;49174;43.198;27.824;2023-04-15T09:48:29;101186.41;;;18.27;69.53
63090;BME280;49174;43.198;27.824;2023-04-15T09:50:57;101189.41;;;18.25;67.84
63090;BME280;49174;43.198;27.824;2023-04-15T09:53:24;101182.03;;;18.26;69.60
63090;BME280;49174;43.198;27.824;2023-04-15T09:55:53;101196.16;;;18.35;69.51
63090;BME280;49174;43.198;27.824;2023-04-15T09:58:23;101184.50;;;18.51;69.68
63090;BME280;49174;43.198;27.824;2023-04-15T10:00:50;101199.34;;;18.55;70.09
63090;BME280;49174;43.198;27.824;2023-04-15T10:03:23;101179.47;;;18.71;69.96
63090;BME280;49174;43.198;27.824;2023-04-15T10:05:51;101179.97;;;18.68;65.38
63090;BME280;49174;43.198;27.824;2023-04-15T10:08:20;101178.91;;;18.69;65.79
63090;BME280;49174;43.198;27.824;2023-04-15T10:10:47;101186.16;;;18.52;63.90
63090;BME280;49174;43.198;27.824;2023-04-15T10:13:16;101182.59;;;18.51;65.29
63090;BME280;49174;43.198;27.824;2023-04-15T10:15:44;101182.88;;;18.50;63.09
63090;BME280;49174;43.198;27.824;2023-04-15T10:18:18;101186.16;;;18.52;64.26
63090;BME280;49174;43.198;27.824;2023-04-15T10:20:45;101187.00;;;18.41;64.27
63090;BME280;49174;43.198;27.824;2023-04-15T10:23:12;101178.56;;;18.54;66.28
63090;BME280;49174;43.198;27.824;2023-04-15T10:25:38;101189.59;;;18.83;65.34
63090;BME280;49174;43.198;27.824;2023-04-15T10:28:05;101177.81;;;18.94;64.39
63090;BME280;49174;43.198;27.824;2023-04-15T10:30:32;101170.19;;;18.96;64.70
63090;BME280;49174;43.198;27.824;2023-04-15T10:32:59;101167.91;;;19.05;64.27
63090;BME280;49174;43.198;27.824;2023-04-15T10:35:27;101168.41;;;19.30;63.69
63090;BME280;49174;43.198;27.824;2023-04-15T10:37:53;101168.72;;;19.62;62.21
63090;BME280;49174;43.198;27.824;2023-04-15T10:40:25;101169.19;;;20.05;61.29
63090;BME280;49174;43.198;27.824;2023-04-15T10:42:53;101167.59;;;20.26;60.12
63090;BME280;49174;43.198;27.824;2023-04-15T10:45:19;101165.44;;;20.28;57.15
63090;BME280;49174;43.198;27.824;2023-04-15T10:47:45;101167.72;;;20.70;58.49
63090;BME280;49174;43.198;27.824;2023-04-15T10:50:10;101168.50;;;21.14;57.73
63090;BME280;49174;43.198;27.824;2023-04-15T10:52:39;101159.75;;;21.39;56.00
63090;BME280;49174;43.198;27.824;2023-04-15T10:55:24;101158.53;;;21.52;53.82
63090;BME280;49174;43.198;27.824;2023-04-15T10:57:55;101163.41;;;21.77;56.49
63090;BME280;49174;43.198;27.824;2023-04-15T11:00:29;101151.84;;;22.07;54.86
63090;BME280;49174;43.198;27.824;2023-04-15T11:02:57;101153.41;;;22.30;57.17
63090;BME280;49174;43.198;27.824;2023-04-15T11:08:14;101154.69;;;22.60;50.03
63090;BME280;49174;43.198;27.824;2023-04-15T11:15:42;101156.94;;;22.73;48.69
63090;BME280;49174;43.198;27.824;2023-04-15T11:18:11;101150.03;;;22.66;50.24
63090;BME280;49174;43.198;27.824;2023-04-15T11:20:38;101154.19;;;22.79;48.89
63090;BME280;49174;43.198;27.824;2023-04-15T11:23:04;101154.53;;;22.87;50.89
63090;BME280;49174;43.198;27.824;2023-04-15T11:25:32;101153.16;;;22.95;47.87
63090;BME280;49174;43.198;27.824;2023-04-15T11:27:59;101156.50;;;22.97;49.08
63090;BME280;49174;43.198;27.824;2023-04-15T11:30:27;101158.75;;;23.05;48.55
63090;BME280;49174;43.198;27.824;2023-04-15T11:32:56;101146.16;;;23.30;47.99
63090;BME280;49174;43.198;27.824;2023-04-15T11:35:22;101140.09;;;23.33;46.18
63090;BME280;49174;43.198;27.824;2023-04-15T11:37:48;101152.78;;;23.49;47.32
63090;BME280;49174;43.198;27.824;2023-04-15T11:40:15;101146.19;;;23.55;44.35
63090;BME280;49174;43.198;27.824;2023-04-15T11:42:43;101145.91;;;23.62;45.26
63090;BME280;49174;43.198;27.824;2023-04-15T11:45:13;101148.38;;;23.53;43.88
63090;BME280;49174;43.198;27.824;2023-04-15T11:47:42;101142.88;;;23.63;44.42
63090;BME280;49174;43.198;27.824;2023-04-15T11:50:18;101144.00;;;23.57;45.69
63090;BME280;49174;43.198;27.824;2023-04-15T11:52:55;101147.03;;;23.66;43.00
63090;BME280;49174;43.198;27.824;2023-04-15T11:55:22;101142.06;;;23.53;44.09
63090;BME280;49174;43.198;27.824;2023-04-15T11:57:49;101138.22;;;23.69;43.90
63090;BME280;49174;43.198;27.824;2023-04-15T12:00:15;101136.84;;;23.82;45.80
63090;BME280;49174;43.198;27.824;2023-04-15T12:02:42;101128.00;;;24.16;42.41
63090;BME280;49174;43.198;27.824;2023-04-15T12:05:08;101130.53;;;24.02;42.91
63090;BME280;49174;43.198;27.824;2023-04-15T12:07:57;101127.47;;;24.03;42.47
63090;BME280;49174;43.198;27.824;2023-04-15T12:10:25;101118.06;;;24.09;40.98
63090;BME280;49174;43.198;27.824;2023-04-15T12:12:51;101123.34;;;24.01;42.20
63090;BME280;49174;43.198;27.824;2023-04-15T12:15:21;101117.25;;;24.14;41.59
63090;BME280;49174;43.198;27.824;2023-04-15T12:17:48;101113.69;;;24.14;41.30
63090;BME280;49174;43.198;27.824;2023-04-15T12:20:20;101117.50;;;24.43;41.07
63090;BME280;49174;43.198;27.824;2023-04-15T12:22:49;101108.56;;;24.72;41.40
63090;BME280;49174;43.198;27.824;2023-04-15T12:25:15;101112.81;;;24.98;42.25
63090;BME280;49174;43.198;27.824;2023-04-15T12:27:40;101119.94;;;25.10;38.48
63090;BME280;49174;43.198;27.824;2023-04-15T12:30:07;101113.03;;;24.63;41.79
63090;BME280;49174;43.198;27.824;2023-04-15T12:32:36;101117.50;;;23.15;46.91
63090;BME280;49174;43.198;27.824;2023-04-15T12:35:01;101120.56;;;23.50;45.09
63090;BME280;49174;43.198;27.824;2023-04-15T12:37:27;101116.97;;;23.39;45.11
63090;BME280;49174;43.198;27.824;2023-04-15T12:39:52;101117.16;;;22.96;47.10
63090;BME280;49174;43.198;27.824;2023-04-15T12:42:20;101125.13;;;22.98;47.52
63090;BME280;49174;43.198;27.824;2023-04-15T12:44:46;101118.03;;;23.07;47.45
63090;BME280;49174;43.198;27.824;2023-04-15T12:47:12;101123.88;;;22.58;47.58
63090;BME280;49174;43.198;27.824;2023-04-15T12:49:38;101119.34;;;22.32;48.75
63090;BME280;49174;43.198;27.824;2023-04-15T12:52:04;101126.78;;;21.67;50.81
63090;BME280;49174;43.198;27.824;2023-04-15T12:54:30;101127.41;;;22.11;51.33
63090;BME280;49174;43.198;27.824;2023-04-15T12:56:56;101128.41;;;21.62;50.47
63090;BME280;49174;43.198;27.824;2023-04-15T12:59:22;101126.38;;;21.80;52.39
63090;BME280;49174;43.198;27.824;2023-04-15T13:01:51;101122.13;;;22.42;50.27
63090;BME280;49174;43.198;27.824;2023-04-15T13:04:18;101129.06;;;22.55;50.32
63090;BME280;49174;43.198;27.824;2023-04-15T13:06:44;101130.97;;;22.49;49.81
63090;BME280;49174;43.198;27.824;2023-04-15T13:09:10;101118.94;;;22.70;49.39
63090;BME280;49174;43.198;27.824;2023-04-15T13:11:36;101121.72;;;22.65;50.17
63090;BME280;49174;43.198;27.824;2023-04-15T13:14:06;101125.50;;;22.59;49.79
63090;BME280;49174;43.198;27.824;2023-04-15T13:16:32;101116.09;;;22.45;48.20
63090;BME280;49174;43.198;27.824;2023-04-15T13:18:59;101124.16;;;22.62;48.18
63090;BME280;49174;43.198;27.824;2023-04-15T13:21:25;101122.19;;;22.15;48.97
63090;BME280;49174;43.198;27.824;2023-04-15T13:23:51;101126.44;;;22.27;48.92
63090;BME280;49174;43.198;27.824;2023-04-15T13:26:17;101135.19;;;22.19;50.22
63090;BME280;49174;43.198;27.824;2023-04-15T13:28:43;101128.16;;;22.39;48.98
63090;BME280;49174;43.198;27.824;2023-04-15T13:31:09;101132.34;;;22.46;48.55
63090;BME280;49174;43.198;27.824;2023-04-15T13:33:34;101133.59;;;22.28;49.28
63090;BME280;49174;43.198;27.824;2023-04-15T13:36:00;101128.47;;;22.05;49.48
63090;BME280;49174;43.198;27.824;2023-04-15T13:38:26;101123.22;;;22.03;48.81
63090;BME280;49174;43.198;27.824;2023-04-15T13:40:51;101118.59;;;21.72;49.64
63090;BME280;49174;43.198;27.824;2023-04-15T13:43:17;101120.63;;;21.86;48.83
63090;BME280;49174;43.198;27.824;2023-04-15T13:45:43;101130.72;;;22.13;49.61
63090;BME280;49174;43.198;27.824;2023-04-15T13:48:08;101127.72;;;21.77;48.02
63090;BME280;49174;43.198;27.824;2023-04-15T13:50:34;101135.22;;;21.06;51.52
63090;BME280;49174;43.198;27.824;2023-04-15T13:53:00;101139.97;;;20.49;52.97
63090;BME280;49174;43.198;27.824;2023-04-15T13:55:26;101142.06;;;20.59;53.77
63090;BME280;49174;43.198;27.824;2023-04-15T13:57:51;101134.69;;;20.60;52.63
63090;BME280;49174;43.198;27.824;2023-04-15T14:00:17;101136.53;;;20.37;52.39
63090;BME280;49174;43.198;27.824;2023-04-15T14:02:42;101135.00;;;20.07;54.55
63090;BME280;49174;43.198;27.824;2023-04-15T14:05:10;101135.22;;;20.23;54.52
63090;BME280;49174;43.198;27.824;2023-04-15T14:07:35;101141.00;;;20.43;52.18
63090;BME280;49174;43.198;27.824;2023-04-15T14:10:01;101144.13;;;19.96;55.00
63090;BME280;49174;43.198;27.824;2023-04-15T14:12:27;101138.72;;;20.18;54.58
63090;BME280;49174;43.198;27.824;2023-04-15T14:14:52;101145.72;;;19.75;55.06
63090;BME280;49174;43.198;27.824;2023-04-15T14:17:18;101149.34;;;19.64;55.98
63090;BME280;49174;43.198;27.824;2023-04-15T14:19:44;101148.81;;;19.50;56.14
63090;BME280;49174;43.198;27.824;2023-04-15T14:22:09;101156.50;;;19.36;56.78
63090;BME280;49174;43.198;27.824;2023-04-15T14:24:35;101148.47;;;19.47;56.83
63090;BME280;49174;43.198;27.824;2023-04-15T14:27:00;101154.44;;;19.15;58.63
63090;BME280;49174;43.198;27.824;2023-04-15T14:29:27;101147.25;;;19.26;59.74
63090;BME280;49174;43.198;27.824;2023-04-15T14:31:52;101158.78;;;19.28;59.14
63090;BME280;49174;43.198;27.824;2023-04-15T14:34:18;101158.31;;;19.31;57.90
63090;BME280;49174;43.198;27.824;2023-04-15T14:36:46;101158.09;;;18.92;58.97
63090;BME280;49174;43.198;27.824;2023-04-15T14:39:12;101168.94;;;18.51;59.79
63090;BME280;49174;43.198;27.824;2023-04-15T14:41:38;101166.00;;;18.06;63.25
63090;BME280;49174;43.198;27.824;2023-04-15T14:44:03;101160.41;;;18.13;64.49
63090;BME280;49174;43.198;27.824;2023-04-15T14:46:29;101166.50;;;17.73;65.65
63090;BME280;49174;43.198;27.824;2023-04-15T14:48:56;101170.22;;;17.78;66.12
63090;BME280;49174;43.198;27.824;2023-04-15T14:51:21;101163.47;;;18.04;65.46